Terminal Aerodrome Forecast
Issued by NWS

Home | Current Version | Previous Version | Text Only | Print | Product List | Glossary On
Versions: 1 2 3 4 5 6 7 8 9 10 11 12 13 14 15 16 17 18 19 20 21 22 23
000
FTUS46 KOTX 070520
TAFPUW
TAF
KPUW 070520Z 0706/0806 VRB04KT P6SM VCSH SCT070 OVC100
     FM071700 31009KT P6SM SCT050 BKN080
     FM080300 35005KT P6SM SCT080=

USA.gov is the U.S. government's official web portal to all federal, state and local government web resources and services.